Time;durP1;ratioP1;P1;durP2;ratioP2;P2;SDS_P1;SDS_P2;PMS_P1;PMS_P2;Temp;Humidity;BMP_temperature;BMP_pressure;BME280_temperature;BME280_humidity;BME280_pressure;Samples;Min_cycle;Max_cycle;Signal;HPM_P1;HPM_P2
2020/12/03 00:00:28;;;;;;;23.15;12.93;;;-1.60;99.90;;;;;;4940946;29;20180;-68
2020/12/03 00:02:55;;;;;;;37.10;17.17;;;-1.60;99.90;;;;;;4940665;29;20698;-68
2020/12/03 00:05:23;;;;;;;23.63;14.60;;;-1.60;99.90;;;;;;4942141;29;20654;-68
2020/12/03 00:07:50;;;;;;;24.05;12.05;;;-1.50;99.90;;;;;;4944613;29;20726;-68
2020/12/03 00:10:17;;;;;;;40.22;13.35;;;-1.60;99.90;;;;;;4944371;29;20193;-69
2020/12/03 00:12:44;;;;;;;28.58;15.57;;;-1.50;99.90;;;;;;4946476;29;20208;-69
2020/12/03 00:15:11;;;;;;;36.67;17.75;;;-1.50;99.90;;;;;;4939123;29;20204;-70
2020/12/03 00:17:39;;;;;;;22.27;13.98;;;-1.50;99.90;;;;;;4938011;29;20216;-69
2020/12/03 00:20:17;;;;;;;26.35;17.13;;;-1.40;99.90;;;;;;4938932;29;20255;-68
2020/12/03 00:22:44;;;;;;;21.60;13.25;;;-1.40;99.90;;;;;;4940308;29;20226;-69
2020/12/03 00:25:12;;;;;;;31.63;13.27;;;-1.50;99.90;;;;;;4942457;29;20605;-69
2020/12/03 00:27:39;;;;;;;27.88;15.35;;;-1.50;99.90;;;;;;4943807;29;20192;-69
2020/12/03 00:30:07;;;;;;;27.33;13.50;;;-1.50;99.90;;;;;;4939102;29;20197;-68
2020/12/03 00:32:34;;;;;;;19.88;10.82;;;-1.50;99.90;;;;;;4941116;29;20291;-70
2020/12/03 00:35:02;;;;;;;28.08;14.20;;;-1.40;99.90;;;;;;4948061;29;20216;-68
2020/12/03 00:37:29;;;;;;;23.58;11.98;;;-1.50;99.90;;;;;;4947314;29;20193;-68
2020/12/03 00:39:56;;;;;;;17.30;7.55;;;-1.50;99.90;;;;;;4937259;29;20192;-68
2020/12/03 00:42:23;;;;;;;31.02;17.52;;;-1.50;99.90;;;;;;4936262;29;20287;-69
2020/12/03 00:44:50;;;;;;;38.03;13.77;;;-1.60;99.90;;;;;;4936380;29;20659;-69
2020/12/03 00:47:17;;;;;;;22.45;11.60;;;-1.60;99.90;;;;;;4934941;29;20539;-71
2020/12/03 00:49:45;;;;;;;19.85;14.75;;;-1.60;99.90;;;;;;4936539;29;20193;-68
2020/12/03 00:52:13;;;;;;;29.83;17.08;;;-1.60;99.90;;;;;;4934901;29;20217;-68
2020/12/03 00:54:41;;;;;;;30.33;17.23;;;-1.60;99.90;;;;;;4934967;29;20247;-68
2020/12/03 00:57:10;;;;;;;25.08;9.73;;;-1.60;99.90;;;;;;4934631;29;20204;-68
2020/12/03 00:59:40;;;;;;;33.42;14.98;;;-1.60;99.90;;;;;;4935627;29;20232;-69
2020/12/03 01:02:10;;;;;;;42.22;15.70;;;-1.60;99.90;;;;;;4935154;29;20304;-68
2020/12/03 01:04:37;;;;;;;27.58;14.60;;;-1.70;99.90;;;;;;4935371;29;20200;-69
2020/12/03 01:07:05;;;;;;;27.98;12.68;;;-1.70;99.90;;;;;;4935138;29;20585;-69
2020/12/03 01:09:37;;;;;;;23.38;14.23;;;-1.70;99.90;;;;;;4935510;29;20196;-68
2020/12/03 01:12:06;;;;;;;30.27;16.42;;;-1.60;99.90;;;;;;4935192;29;20217;-68
2020/12/03 01:14:34;;;;;;;19.00;12.10;;;-1.60;99.90;;;;;;4934623;29;20200;-68
2020/12/03 01:17:04;;;;;;;28.75;14.65;;;-1.60;99.90;;;;;;4935289;29;20248;-69
2020/12/03 01:19:31;;;;;;;23.55;13.55;;;-1.70;99.90;;;;;;4935647;29;20242;-69
2020/12/03 01:21:58;;;;;;;19.40;13.10;;;-1.70;99.90;;;;;;4935616;29;20605;-68
2020/12/03 01:24:25;;;;;;;35.03;16.00;;;-1.70;99.90;;;;;;4935636;29;20177;-69
2020/12/03 01:26:53;;;;;;;22.70;15.25;;;-1.70;99.90;;;;;;4935659;29;20189;-68
2020/12/03 01:29:22;;;;;;;27.17;16.27;;;-1.70;99.90;;;;;;4935499;29;20224;-69
2020/12/03 01:31:51;;;;;;;35.65;20.15;;;-1.70;99.90;;;;;;4935218;29;20213;-67
2020/12/03 01:34:18;;;;;;;34.72;14.25;;;-1.70;99.90;;;;;;4935268;29;20712;-69
2020/12/03 01:36:49;;;;;;;17.98;11.40;;;-1.70;99.90;;;;;;4934180;29;20570;-69
2020/12/03 01:39:16;;;;;;;26.05;14.98;;;-1.70;99.90;;;;;;4935385;29;20188;-67
2020/12/03 01:41:44;;;;;;;20.30;15.73;;;-1.80;99.90;;;;;;4935660;29;20576;-68
2020/12/03 01:44:12;;;;;;;21.00;12.07;;;-1.80;99.90;;;;;;4935388;29;20197;-67
2020/12/03 01:46:40;;;;;;;26.00;14.43;;;-1.90;99.90;;;;;;4935296;29;20662;-67
2020/12/03 01:49:17;;;;;;;26.20;12.52;;;-1.90;99.90;;;;;;4935539;29;20188;-68
2020/12/03 01:51:50;;;;;;;35.65;14.82;;;-1.90;99.90;;;;;;4935056;29;20223;-68
2020/12/03 01:54:19;;;;;;;28.63;15.23;;;-1.90;99.90;;;;;;4935022;29;20188;-69
2020/12/03 01:56:57;;;;;;;25.48;12.43;;;-1.90;99.90;;;;;;4934788;29;20205;-68
2020/12/03 01:59:33;;;;;;;28.88;12.10;;;-2.00;99.90;;;;;;4934988;29;20204;-68
2020/12/03 02:02:01;;;;;;;29.70;12.00;;;-1.90;99.90;;;;;;4934892;29;20212;-68
2020/12/03 02:04:28;;;;;;;22.58;14.90;;;-1.90;99.90;;;;;;4934824;29;20560;-69
2020/12/03 02:07:00;;;;;;;25.88;12.73;;;-1.90;99.90;;;;;;4934744;29;20193;-69
2020/12/03 02:09:28;;;;;;;28.52;17.25;;;-1.90;99.90;;;;;;4934911;29;20192;-68
2020/12/03 02:11:56;;;;;;;31.67;15.77;;;-1.80;99.90;;;;;;4934674;29;20212;-68
2020/12/03 02:14:23;;;;;;;25.35;14.25;;;-1.80;99.90;;;;;;4936236;29;20197;-67
2020/12/03 02:17:11;;;;;;;29.58;15.02;;;-1.80;99.90;;;;;;4882558;29;20202;-70
2020/12/03 02:19:40;;;;;;;20.40;15.50;;;-1.80;99.90;;;;;;4898132;29;20242;-68
2020/12/03 02:22:10;;;;;;;32.00;17.73;;;-1.70;99.90;;;;;;4897638;29;20234;-68
2020/12/03 02:24:39;;;;;;;22.63;14.13;;;-1.70;99.90;;;;;;4897965;29;20186;-69
2020/12/03 02:27:07;;;;;;;39.35;15.20;;;-1.60;99.90;;;;;;4897910;29;20285;-69
2020/12/03 02:29:35;;;;;;;25.50;15.77;;;-1.60;99.90;;;;;;4898055;29;20211;-68
2020/12/03 02:32:03;;;;;;;40.75;20.25;;;-1.50;99.90;;;;;;4897822;29;20226;-69
2020/12/03 02:34:30;;;;;;;23.67;11.77;;;-1.50;99.90;;;;;;4888517;29;20200;-69
2020/12/03 02:37:00;;;;;;;26.40;13.80;;;-1.60;99.90;;;;;;4937765;29;20260;-69
2020/12/03 02:39:29;;;;;;;23.35;15.27;;;-1.60;99.90;;;;;;4937626;29;20181;-67
2020/12/03 02:41:58;;;;;;;38.53;19.30;;;-1.60;99.90;;;;;;4937712;29;20209;-69
2020/12/03 02:44:25;;;;;;;26.00;13.90;;;-1.50;99.90;;;;;;4937675;29;20205;-69
2020/12/03 02:46:52;;;;;;;32.05;16.85;;;-1.50;99.90;;;;;;4937620;29;20189;-68
2020/12/03 02:49:19;;;;;;;32.22;14.95;;;-1.40;99.90;;;;;;4937617;29;20185;-68
2020/12/03 02:51:47;;;;;;;29.73;17.40;;;-1.50;99.90;;;;;;4937423;29;20220;-68
2020/12/03 02:54:15;;;;;;;25.25;14.27;;;-1.50;99.90;;;;;;4938151;29;20192;-68
2020/12/03 02:56:43;;;;;;;40.35;16.27;;;-1.50;99.90;;;;;;4938418;29;20697;-70
2020/12/03 02:59:11;;;;;;;49.15;18.95;;;-1.50;99.90;;;;;;4936193;29;20204;-69
2020/12/03 03:01:39;;;;;;;40.92;23.13;;;-1.50;99.90;;;;;;4937559;29;20196;-69
2020/12/03 03:04:06;;;;;;;26.60;13.82;;;-1.50;99.90;;;;;;4937214;29;20193;-69
2020/12/03 03:06:34;;;;;;;57.78;17.35;;;-1.50;99.90;;;;;;4937251;29;20217;-69
2020/12/03 03:09:03;;;;;;;29.02;17.05;;;-1.60;99.90;;;;;;4937407;29;20574;-69
2020/12/03 03:11:32;;;;;;;35.05;19.10;;;-1.50;99.90;;;;;;4937214;29;20185;-68
2020/12/03 03:14:00;;;;;;;34.90;17.98;;;-1.50;99.90;;;;;;4936935;29;20200;-69
2020/12/03 03:16:28;;;;;;;14.23;7.40;;;-1.50;99.90;;;;;;4937295;29;20201;-68
2020/12/03 03:18:55;;;;;;;23.05;14.45;;;-1.60;99.90;;;;;;4936989;29;20200;-69
2020/12/03 03:21:22;;;;;;;34.38;20.55;;;-1.70;99.90;;;;;;4936712;29;20244;-70
2020/12/03 03:23:49;;;;;;;36.17;16.70;;;-1.70;99.90;;;;;;4936906;29;20208;-70
2020/12/03 03:26:17;;;;;;;34.70;22.23;;;-1.70;99.90;;;;;;4935882;29;20200;-69
2020/12/03 03:28:46;;;;;;;29.77;17.50;;;-1.70;99.90;;;;;;4937126;29;20268;-69
2020/12/03 03:31:13;;;;;;;31.95;15.27;;;-1.80;99.90;;;;;;4937646;29;20662;-69
2020/12/03 03:33:40;;;;;;;43.60;19.67;;;-1.80;99.90;;;;;;4936914;29;20208;-68
2020/12/03 03:36:07;;;;;;;47.00;18.55;;;-1.80;99.90;;;;;;4936705;29;20593;-69
2020/12/03 03:38:35;;;;;;;39.10;20.02;;;-1.90;99.90;;;;;;4937000;29;20189;-69
2020/12/03 03:41:02;;;;;;;34.53;17.17;;;-1.90;99.90;;;;;;4937753;29;20204;-69
2020/12/03 03:43:29;;;;;;;28.67;14.60;;;-1.80;99.90;;;;;;4937388;29;20225;-70
2020/12/03 03:45:57;;;;;;;37.60;17.55;;;-1.80;99.90;;;;;;4937685;29;20204;-69
2020/12/03 03:48:24;;;;;;;33.13;23.63;;;-1.80;99.90;;;;;;4937554;29;20231;-69
2020/12/03 03:50:51;;;;;;;27.48;14.65;;;-1.70;99.90;;;;;;4937939;29;20201;-69
2020/12/03 03:53:19;;;;;;;36.55;20.65;;;-1.70;99.90;;;;;;4937064;29;20212;-69
2020/12/03 03:55:46;;;;;;;17.58;12.27;;;-1.70;99.90;;;;;;4936388;29;20212;-69
2020/12/03 03:58:13;;;;;;;30.10;15.68;;;-1.70;99.90;;;;;;4937130;29;20659;-68
2020/12/03 04:00:42;;;;;;;40.67;19.75;;;-1.60;99.90;;;;;;4936347;29;20193;-68
2020/12/03 04:03:13;;;;;;;24.67;14.00;;;-1.60;99.90;;;;;;4936602;29;20638;-69
2020/12/03 04:05:40;;;;;;;39.50;17.55;;;-1.50;99.90;;;;;;4936747;29;20255;-68
2020/12/03 04:08:08;;;;;;;17.15;12.60;;;-1.50;99.90;;;;;;4936056;29;20377;-69
2020/12/03 04:10:35;;;;;;;26.23;14.65;;;-1.50;99.90;;;;;;4935992;29;20207;-69
2020/12/03 04:13:02;;;;;;;33.10;17.42;;;-1.50;99.90;;;;;;4936133;29;20205;-69
2020/12/03 04:15:30;;;;;;;30.38;15.55;;;-1.40;99.90;;;;;;4936212;29;20701;-68
2020/12/03 04:17:57;;;;;;;30.92;16.90;;;-1.40;99.90;;;;;;4936003;29;20682;-68
2020/12/03 04:20:25;;;;;;;31.60;17.50;;;-1.40;99.90;;;;;;4935906;29;20212;-67
2020/12/03 04:22:52;;;;;;;28.33;15.50;;;-1.40;99.90;;;;;;4935829;29;20259;-68
2020/12/03 04:25:20;;;;;;;26.42;14.10;;;-1.40;99.90;;;;;;4937212;29;20642;-68
2020/12/03 04:27:47;;;;;;;35.33;19.88;;;-1.50;99.90;;;;;;4935900;29;20185;-68
2020/12/03 04:30:14;;;;;;;32.33;15.27;;;-1.50;99.90;;;;;;4935739;29;20199;-68
2020/12/03 04:32:41;;;;;;;54.45;23.55;;;-1.50;99.90;;;;;;4935662;29;20212;-68
2020/12/03 04:35:10;;;;;;;31.65;22.42;;;-1.40;99.90;;;;;;4935860;29;20615;-69
2020/12/03 04:37:38;;;;;;;30.02;15.73;;;-1.50;99.90;;;;;;4935627;29;20622;-69
2020/12/03 04:40:06;;;;;;;27.25;19.05;;;-1.40;99.90;;;;;;4936247;29;20216;-68
2020/12/03 04:42:36;;;;;;;48.00;18.50;;;-1.30;99.90;;;;;;4936045;29;20223;-68
2020/12/03 04:45:15;;;;;;;38.67;21.58;;;-1.40;99.90;;;;;;4936752;29;20686;-68
2020/12/03 04:47:56;;;;;;;23.95;15.55;;;-1.30;99.90;;;;;;4936383;29;20233;-68
2020/12/03 04:50:33;;;;;;;35.53;20.60;;;-1.30;99.90;;;;;;4935942;29;20248;-68
2020/12/03 04:53:11;;;;;;;53.15;24.40;;;-1.20;99.90;;;;;;4934311;29;20226;-70
2020/12/03 04:55:53;;;;;;;38.25;19.80;;;-1.10;99.90;;;;;;4936049;29;20219;-69
2020/12/03 04:58:35;;;;;;;36.67;19.67;;;-1.20;99.90;;;;;;4935861;29;20181;-69
2020/12/03 05:01:20;;;;;;;36.15;19.33;;;-1.10;99.90;;;;;;4935775;29;20180;-67
2020/12/03 05:04:03;;;;;;;34.38;17.63;;;-1.00;99.90;;;;;;4935451;29;20536;-68
2020/12/03 05:06:49;;;;;;;37.65;17.45;;;-1.00;99.90;;;;;;4934084;29;20605;-67
2020/12/03 05:09:22;;;;;;;28.60;16.52;;;-1.00;99.90;;;;;;4933219;29;20215;-68
2020/12/03 05:11:54;;;;;;;35.03;15.32;;;-1.10;99.90;;;;;;4935114;29;20236;-68
2020/12/03 05:14:48;;;;;;;39.60;17.13;;;-1.10;99.90;;;;;;4935303;29;20642;-69
2020/12/03 05:17:31;;;;;;;24.90;13.18;;;-1.10;99.90;;;;;;4931689;29;20651;-68
2020/12/03 05:20:21;;;;;;;26.25;14.02;;;-1.00;99.90;;;;;;4935031;29;20188;-68
2020/12/03 05:22:55;;;;;;;24.50;15.95;;;-1.00;99.90;;;;;;5081682;23;20238;-69
2020/12/03 05:25:25;;;;;;;37.67;16.75;;;-1.00;99.90;;;;;;4978850;28;20188;-70
2020/12/03 05:27:55;;;;;;;35.70;20.90;;;-1.00;99.90;;;;;;4979899;28;20199;-69
2020/12/03 05:30:23;;;;;;;32.13;13.60;;;-0.90;99.90;;;;;;4980999;28;20180;-68
2020/12/03 05:32:50;;;;;;;30.70;16.33;;;-0.80;99.90;;;;;;4981583;28;20216;-69
2020/12/03 05:35:18;;;;;;;41.38;15.20;;;-0.80;99.90;;;;;;4979523;28;20270;-70
2020/12/03 05:37:46;;;;;;;31.40;18.60;;;-0.80;99.90;;;;;;4979706;28;20204;-71
2020/12/03 05:40:23;;;;;;;29.88;20.23;;;-0.90;99.90;;;;;;4979398;28;20532;-69
2020/12/03 05:42:55;;;;;;;47.63;21.98;;;-0.90;99.90;;;;;;4977449;28;20211;-70
2020/12/03 05:45:28;;;;;;;34.53;16.80;;;-0.90;99.90;;;;;;4978973;28;20256;-69
2020/12/03 05:47:58;;;;;;;36.60;16.80;;;-0.90;99.90;;;;;;4980334;28;20597;-68
2020/12/03 05:50:36;;;;;;;28.92;19.20;;;-0.90;99.90;;;;;;4979705;28;20591;-69
2020/12/03 05:53:06;;;;;;;25.17;14.75;;;-0.90;99.90;;;;;;4979422;28;20203;-67
2020/12/03 05:55:34;;;;;;;28.15;18.30;;;-0.90;99.90;;;;;;4979027;28;20180;-72
2020/12/03 05:58:14;;;;;;;44.33;23.33;;;-0.90;99.90;;;;;;4976725;28;20176;-68
2020/12/03 06:00:42;;;;;;;34.58;20.77;;;-0.90;99.90;;;;;;4980148;28;20211;-70
2020/12/03 06:03:33;;;;;;;30.70;18.52;;;-0.90;99.90;;;;;;4981176;28;20254;-69
2020/12/03 06:06:30;;;;;;;32.78;19.27;;;-0.90;99.90;;;;;;4977428;28;20179;-71
2020/12/03 06:09:09;;;;;;;37.38;18.80;;;-0.90;99.90;;;;;;4974720;28;20675;-70
2020/12/03 06:11:47;;;;;;;62.15;22.42;;;-0.80;99.90;;;;;;4977516;28;20267;-69
2020/12/03 06:14:47;;;;;;;40.25;20.63;;;-0.90;99.90;;;;;;4977564;28;20661;-68
2020/12/03 06:17:27;;;;;;;32.10;18.33;;;-0.80;99.90;;;;;;4977155;28;20200;-70
2020/12/03 06:20:05;;;;;;;45.85;17.95;;;-0.70;99.90;;;;;;4977104;28;20190;-68
2020/12/03 06:22:52;;;;;;;32.03;19.17;;;-0.70;99.90;;;;;;4976309;28;20310;-71
2020/12/03 06:25:44;;;;;;;41.90;22.30;;;-0.70;99.90;;;;;;4975612;28;20570;-70
2020/12/03 06:28:41;;;;;;;19.40;14.50;;;-0.70;99.90;;;;;;4976725;28;20199;-69
2020/12/03 06:31:23;;;;;;;40.63;20.17;;;-0.70;99.90;;;;;;4975138;28;20656;-71
2020/12/03 06:33:57;;;;;;;28.23;17.55;;;-0.70;99.90;;;;;;4977179;28;20184;-68
2020/12/03 06:36:38;;;;;;;43.97;22.58;;;-0.70;99.90;;;;;;4976299;28;20203;-68
2020/12/03 06:39:48;;;;;;;28.95;11.95;;;-0.60;99.90;;;;;;4977153;28;20183;-68
2020/12/03 06:42:29;;;;;;;35.45;18.58;;;-0.70;99.90;;;;;;4943847;28;20223;-71
2020/12/03 06:45:04;;;;;;;30.40;15.20;;;-0.70;99.90;;;;;;4976774;28;20179;-70
2020/12/03 06:48:06;;;;;;;35.80;17.15;;;-0.70;99.90;;;;;;4977077;28;20203;-70
2020/12/03 06:51:21;;;;;;;34.03;18.90;;;-0.60;99.90;;;;;;4975814;28;20633;-70
2020/12/03 06:54:34;;;;;;;39.92;14.55;;;-0.70;99.90;;;;;;4917751;29;20245;-69
2020/12/03 06:57:43;;;;;;;25.63;13.82;;;-0.70;99.90;;;;;;4917901;29;20206;-69
2020/12/03 07:00:35;;;;;;;22.67;13.30;;;-0.60;99.90;;;;;;4976680;28;20553;-70
2020/12/03 07:03:42;;;;;;;42.72;18.58;;;-0.70;99.90;;;;;;4978248;28;20239;-71
2020/12/03 07:06:41;;;;;;;38.55;18.50;;;-0.70;99.90;;;;;;4977655;28;20198;-70
2020/12/03 07:09:45;;;;;;;28.98;16.88;;;-0.60;99.90;;;;;;4976976;28;20267;-69
2020/12/03 07:12:30;;;;;;;27.98;16.85;;;-0.60;99.90;;;;;;4976502;28;20210;-69
2020/12/03 07:15:35;;;;;;;21.70;14.95;;;-0.50;99.90;;;;;;4976356;28;20180;-70
2020/12/03 07:18:42;;;;;;;33.10;20.70;;;-0.50;99.90;;;;;;4977656;28;20282;-71
2020/12/03 07:22:02;;;;;;;37.15;14.05;;;-0.50;99.90;;;;;;4977403;28;20175;-70
2020/12/03 07:24:32;;;;;;;40.20;21.27;;;-0.50;99.90;;;;;;4976438;28;20527;-70
2020/12/03 07:27:33;;;;;;;38.75;21.48;;;-0.50;99.90;;;;;;4977753;28;20193;-69
2020/12/03 07:30:03;;;;;;;43.03;21.15;;;-0.40;99.90;;;;;;4977254;28;20502;-70
2020/12/03 07:32:45;;;;;;;33.40;20.42;;;-0.40;99.90;;;;;;4976098;28;20718;-69
2020/12/03 07:35:28;;;;;;;50.78;21.35;;;-0.40;99.90;;;;;;4977505;28;20246;-70
2020/12/03 07:38:04;;;;;;;36.50;20.15;;;-0.30;99.90;;;;;;4976692;28;20207;-70
2020/12/03 07:40:32;;;;;;;32.95;18.17;;;-0.40;99.90;;;;;;4979627;28;20175;-70
2020/12/03 07:43:01;;;;;;;32.38;18.48;;;-0.40;99.90;;;;;;4979202;28;20211;-69
2020/12/03 07:45:42;;;;;;;48.88;20.85;;;-0.40;99.90;;;;;;4983184;28;20222;-68
2020/12/03 07:48:13;;;;;;;31.05;16.25;;;-0.40;99.90;;;;;;4982374;28;20171;-71
2020/12/03 07:50:48;;;;;;;38.33;20.05;;;-0.30;99.90;;;;;;4982176;28;20262;-69
2020/12/03 07:53:24;;;;;;;41.45;22.35;;;-0.30;99.90;;;;;;4980687;28;20210;-71
2020/12/03 07:55:55;;;;;;;46.47;20.15;;;-0.20;99.90;;;;;;4978895;28;20211;-71
2020/12/03 07:58:32;;;;;;;42.10;19.55;;;-0.20;99.90;;;;;;4978234;28;20183;-70
2020/12/03 08:00:59;;;;;;;39.17;19.58;;;-0.20;99.90;;;;;;4979502;28;20185;-68
2020/12/03 08:03:46;;;;;;;45.47;22.45;;;-0.10;99.90;;;;;;4978461;28;20211;-69
2020/12/03 08:06:18;;;;;;;26.80;17.30;;;-0.20;99.90;;;;;;4979001;28;20183;-71
2020/12/03 08:08:48;;;;;;;33.08;18.15;;;-0.30;99.90;;;;;;4977733;28;20211;-71
2020/12/03 08:11:41;;;;;;;28.45;19.88;;;-0.20;99.90;;;;;;4977381;28;20552;-71
2020/12/03 08:14:50;;;;;;;40.00;19.98;;;-0.30;99.90;;;;;;4977544;28;20188;-68
2020/12/03 08:17:44;;;;;;;37.78;15.77;;;-0.20;99.90;;;;;;4970276;28;20250;-70
2020/12/03 08:20:40;;;;;;;41.58;18.55;;;0.00;99.90;;;;;;4975987;28;20203;-70
2020/12/03 08:23:11;;;;;;;36.78;16.70;;;0.00;99.90;;;;;;4976228;28;20219;-70
2020/12/03 08:25:45;;;;;;;21.15;16.05;;;0.20;99.90;;;;;;4975998;28;20180;-69
2020/12/03 08:28:21;;;;;;;35.05;22.83;;;0.20;99.90;;;;;;4976277;28;20704;-71
2020/12/03 08:30:51;;;;;;;16.08;10.98;;;0.10;99.90;;;;;;4975394;28;20172;-69
2020/12/03 08:33:32;;;;;;;28.85;13.85;;;0.00;99.90;;;;;;4974327;28;20223;-69
2020/12/03 08:36:01;;;;;;;28.42;16.92;;;0.10;99.90;;;;;;4975744;28;20203;-69
2020/12/03 08:38:31;;;;;;;26.83;15.82;;;0.20;99.90;;;;;;4974490;28;20199;-70
2020/12/03 08:41:01;;;;;;;31.55;14.43;;;0.30;99.90;;;;;;4975284;28;20176;-68
2020/12/03 08:43:30;;;;;;;29.90;16.90;;;0.40;99.90;;;;;;4974789;28;20221;-69
2020/12/03 08:46:03;;;;;;;40.78;19.92;;;0.40;99.90;;;;;;4974268;28;20202;-69
2020/12/03 08:48:33;;;;;;;34.20;20.52;;;0.60;99.90;;;;;;4975035;28;20175;-70
2020/12/03 08:51:03;;;;;;;32.55;15.25;;;0.70;99.90;;;;;;4974055;28;20183;-69
2020/12/03 08:53:32;;;;;;;43.08;21.83;;;0.60;99.90;;;;;;4977848;28;20555;-73
2020/12/03 08:56:33;;;;;;;30.40;15.05;;;0.60;99.90;;;;;;4976512;28;20194;-71
2020/12/03 08:59:08;;;;;;;31.45;16.40;;;0.50;99.90;;;;;;4979179;28;20193;-72
2020/12/03 09:01:41;;;;;;;26.23;17.08;;;0.50;99.90;;;;;;4984069;28;20175;-70
2020/12/03 09:04:11;;;;;;;26.83;19.15;;;0.40;99.90;;;;;;4984692;28;20183;-70
2020/12/03 09:06:47;;;;;;;26.27;16.00;;;0.60;99.90;;;;;;4979334;28;20597;-70
2020/12/03 09:09:18;;;;;;;28.60;15.30;;;0.60;99.90;;;;;;4977763;28;20195;-71
2020/12/03 09:11:47;;;;;;;43.63;17.83;;;0.70;99.90;;;;;;4981109;28;20271;-70
2020/12/03 09:14:16;;;;;;;34.58;18.10;;;0.60;99.90;;;;;;4983278;28;20195;-70
2020/12/03 09:16:53;;;;;;;32.47;16.90;;;0.60;99.90;;;;;;4981793;28;20696;-71
2020/12/03 09:19:24;;;;;;;38.55;20.10;;;0.60;99.90;;;;;;4981993;28;20636;-72
2020/12/03 09:21:57;;;;;;;33.83;16.80;;;0.80;99.90;;;;;;4982915;28;20223;-71
2020/12/03 09:24:27;;;;;;;31.17;14.50;;;0.90;99.90;;;;;;4985224;28;20206;-71
2020/12/03 09:27:04;;;;;;;20.83;11.95;;;0.80;99.90;;;;;;4986055;28;20176;-70
2020/12/03 09:29:31;;;;;;;32.08;20.00;;;0.80;99.90;;;;;;4986506;28;20545;-70
2020/12/03 09:32:19;;;;;;;32.72;16.23;;;0.80;99.90;;;;;;4988509;28;20616;-70
2020/12/03 09:34:53;;;;;;;26.52;16.05;;;0.80;99.90;;;;;;4987104;28;20171;-71
2020/12/03 09:37:24;;;;;;;17.75;12.80;;;0.80;99.90;;;;;;4983477;28;20203;-70
2020/12/03 09:39:52;;;;;;;25.63;17.60;;;0.60;99.90;;;;;;4980418;28;20194;-70
2020/12/03 09:42:20;;;;;;;42.70;17.77;;;0.60;99.90;;;;;;4979702;28;20625;-69
2020/12/03 09:44:54;;;;;;;40.83;19.15;;;0.60;99.90;;;;;;4978812;28;20505;-70
2020/12/03 09:47:25;;;;;;;29.98;14.95;;;0.70;99.90;;;;;;4977768;28;20178;-69
2020/12/03 09:49:54;;;;;;;26.88;16.33;;;0.70;99.90;;;;;;4980715;28;20263;-70
2020/12/03 09:52:23;;;;;;;25.35;15.18;;;0.70;99.90;;;;;;4984199;28;20207;-71
2020/12/03 09:54:54;;;;;;;38.17;20.92;;;0.70;99.90;;;;;;4985148;28;20270;-70
2020/12/03 09:57:21;;;;;;;26.75;15.93;;;0.80;99.90;;;;;;4982446;28;20208;-70
2020/12/03 09:59:48;;;;;;;35.90;19.88;;;0.90;99.90;;;;;;4976089;28;20191;-71
2020/12/03 10:02:42;;;;;;;37.53;18.08;;;1.00;99.90;;;;;;4977472;28;20471;-69
2020/12/03 10:05:22;;;;;;;26.17;16.52;;;1.10;99.90;;;;;;4946810;28;20239;-71
2020/12/03 10:08:31;;;;;;;25.88;17.27;;;1.10;99.90;;;;;;4981977;28;20183;-71
2020/12/03 10:11:21;;;;;;;27.40;15.73;;;1.20;99.90;;;;;;4948405;28;20208;-71
2020/12/03 10:14:18;;;;;;;34.40;18.27;;;1.20;99.90;;;;;;4979802;28;20255;-72
2020/12/03 10:16:49;;;;;;;29.65;16.10;;;1.30;99.90;;;;;;4976583;28;20207;-71
2020/12/03 10:19:17;;;;;;;26.95;15.52;;;1.20;99.90;;;;;;4979120;28;20187;-70
2020/12/03 10:21:53;;;;;;;27.98;16.02;;;1.10;99.90;;;;;;4977228;28;20235;-71
2020/12/03 10:24:23;;;;;;;25.05;13.98;;;1.10;99.90;;;;;;4976936;28;20217;-70
2020/12/03 10:27:00;;;;;;;29.77;15.27;;;1.00;99.90;;;;;;4978471;23;20235;-75
2020/12/03 10:29:42;;;;;;;29.17;14.05;;;1.10;99.90;;;;;;4958374;28;20199;-75
2020/12/03 10:32:12;;;;;;;25.85;15.10;;;1.20;99.90;;;;;;4958207;28;20208;-75
2020/12/03 10:34:41;;;;;;;22.95;14.98;;;1.30;99.90;;;;;;4956936;28;20207;-75
2020/12/03 10:37:21;;;;;;;18.55;8.75;;;1.40;99.90;;;;;;4957780;28;20684;-75
2020/12/03 10:39:52;;;;;;;26.98;15.40;;;1.30;99.90;;;;;;4957602;28;20309;-75
2020/12/03 10:42:22;;;;;;;27.75;14.63;;;1.40;99.90;;;;;;4956449;28;20231;-75
2020/12/03 10:44:55;;;;;;;37.22;18.10;;;1.40;99.90;;;;;;4956208;29;20295;-75
2020/12/03 10:47:24;;;;;;;24.00;14.00;;;1.40;99.90;;;;;;4957489;28;20235;-75
2020/12/03 10:49:54;;;;;;;26.48;16.95;;;1.40;99.90;;;;;;4958374;28;20218;-74
2020/12/03 10:52:27;;;;;;;22.98;16.02;;;1.50;99.90;;;;;;4959158;28;20286;-74
2020/12/03 10:55:00;;;;;;;26.65;15.10;;;1.40;99.90;;;;;;4957198;28;20655;-73
2020/12/03 10:57:31;;;;;;;31.65;18.42;;;1.40;99.90;;;;;;4958297;28;20196;-75
2020/12/03 11:00:01;;;;;;;24.00;16.48;;;1.30;99.90;;;;;;4958047;28;20180;-75
2020/12/03 11:02:36;;;;;;;19.95;13.88;;;1.10;99.90;;;;;;4956771;28;20251;-76
2020/12/03 11:05:07;;;;;;;22.75;12.35;;;1.10;99.90;;;;;;4958398;28;20184;-76
2020/12/03 11:07:36;;;;;;;25.90;12.77;;;1.10;99.90;;;;;;4958716;28;20195;-75
2020/12/03 11:10:04;;;;;;;18.38;11.40;;;1.10;99.90;;;;;;4958017;28;20187;-76
2020/12/03 11:12:32;;;;;;;29.73;15.65;;;1.10;99.90;;;;;;4957868;28;20212;-75
2020/12/03 11:15:01;;;;;;;21.88;17.05;;;1.10;99.90;;;;;;4957192;28;20192;-74
2020/12/03 11:17:49;;;;;;;26.33;15.00;;;1.20;99.90;;;;;;4957208;28;20255;-75
2020/12/03 11:20:38;;;;;;;25.92;14.68;;;1.30;99.90;;;;;;4956045;29;20210;-76
2020/12/03 11:23:23;;;;;;;28.75;16.13;;;1.30;99.90;;;;;;4995806;23;20230;-76
2020/12/03 11:25:57;;;;;;;13.50;9.80;;;1.40;99.90;;;;;;4962196;28;20183;-77
2020/12/03 11:28:33;;;;;;;24.55;15.15;;;1.50;99.90;;;;;;4963315;28;20175;-75
2020/12/03 11:31:03;;;;;;;22.50;13.35;;;1.40;99.90;;;;;;4961524;28;20647;-74
2020/12/03 11:33:36;;;;;;;19.17;13.75;;;1.40;99.90;;;;;;4959120;29;20220;-75
2020/12/03 11:36:12;;;;;;;20.17;12.77;;;1.50;99.90;;;;;;4957565;29;20176;-77
2020/12/03 11:38:44;;;;;;;23.30;14.90;;;1.50;99.90;;;;;;4956786;28;20200;-76
2020/12/03 11:41:23;;;;;;;23.95;12.50;;;1.50;99.90;;;;;;4955323;29;20654;-76
2020/12/03 11:49:36;;;;;;;32.92;14.80;;;1.80;99.90;;;;;;4943644;28;20200;-76
2020/12/03 11:52:12;;;;;;;29.00;14.73;;;1.80;99.90;;;;;;4958468;28;20200;-77
2020/12/03 11:54:42;;;;;;;28.98;13.15;;;1.70;99.90;;;;;;4961522;28;20208;-77
2020/12/03 11:57:10;;;;;;;28.15;16.77;;;1.80;99.90;;;;;;4958258;28;20578;-77
2020/12/03 11:59:39;;;;;;;17.55;11.15;;;1.70;99.90;;;;;;4973789;28;20570;-77
2020/12/03 12:02:09;;;;;;;28.70;13.07;;;1.50;99.90;;;;;;4958572;28;20215;-76
2020/12/03 12:04:45;;;;;;;22.38;11.20;;;1.40;99.90;;;;;;4958099;28;20436;-77
2020/12/03 12:07:29;;;;;;;31.90;16.35;;;1.30;99.90;;;;;;4957143;28;20196;-78
2020/12/03 12:10:14;;;;;;;21.52;13.57;;;1.30;99.90;;;;;;4957401;29;20249;-78
2020/12/03 12:12:45;;;;;;;22.98;13.43;;;1.50;99.90;;;;;;4957377;28;20208;-79
2020/12/03 12:15:13;;;;;;;25.40;11.38;;;1.40;99.90;;;;;;4957852;29;20184;-78
2020/12/03 12:17:40;;;;;;;35.38;17.75;;;1.30;99.90;;;;;;4958084;28;20196;-78
2020/12/03 12:20:10;;;;;;;26.33;13.27;;;1.40;99.90;;;;;;4959683;28;20184;-78
2020/12/03 12:22:38;;;;;;;19.13;11.50;;;1.40;99.90;;;;;;4959646;28;20223;-78
2020/12/03 12:25:07;;;;;;;23.13;14.13;;;1.40;99.90;;;;;;4958521;28;20643;-77
2020/12/03 12:27:35;;;;;;;35.15;18.35;;;1.50;99.90;;;;;;4958158;28;20184;-79
2020/12/03 12:30:04;;;;;;;21.45;12.25;;;1.50;99.90;;;;;;4957418;28;20630;-77
2020/12/03 12:32:31;;;;;;;21.80;12.02;;;1.50;99.90;;;;;;4955192;29;20220;-78
2020/12/03 12:35:02;;;;;;;32.40;16.05;;;1.70;99.90;;;;;;4957358;28;20651;-77
2020/12/03 12:37:30;;;;;;;22.33;14.80;;;1.60;99.90;;;;;;4956667;28;20200;-77
2020/12/03 12:39:58;;;;;;;38.13;15.30;;;1.60;99.90;;;;;;4957500;28;20195;-77
2020/12/03 12:42:28;;;;;;;23.70;11.77;;;1.50;99.90;;;;;;4956729;29;20286;-78
2020/12/03 12:44:56;;;;;;;20.30;14.60;;;1.40;99.90;;;;;;4957438;29;20200;-78
2020/12/03 12:47:24;;;;;;;15.57;9.63;;;1.40;99.90;;;;;;4957190;28;20184;-77
2020/12/03 12:49:52;;;;;;;19.38;12.38;;;1.60;99.90;;;;;;4956131;28;20200;-78
2020/12/03 12:52:20;;;;;;;21.30;12.15;;;1.60;99.90;;;;;;4957926;28;20208;-77
2020/12/03 12:54:48;;;;;;;31.17;12.90;;;1.70;99.90;;;;;;4957799;29;20671;-78
2020/12/03 12:57:19;;;;;;;20.65;9.98;;;1.80;99.90;;;;;;4958435;28;20192;-79
2020/12/03 12:59:48;;;;;;;20.40;10.32;;;1.80;99.90;;;;;;4956918;28;20639;-76
2020/12/03 13:02:16;;;;;;;26.30;14.32;;;1.70;99.90;;;;;;4955640;28;20208;-75
2020/12/03 13:04:45;;;;;;;28.25;15.90;;;1.50;99.90;;;;;;4954162;28;20199;-74
2020/12/03 13:07:13;;;;;;;23.45;11.20;;;1.50;99.90;;;;;;4954157;28;20191;-76
2020/12/03 13:09:41;;;;;;;27.65;10.93;;;1.40;99.90;;;;;;4955622;28;20202;-76